Terminal Aerodrome Forecast
Issued by NWS Medford, OR

Home | Current Version | Previous Version | Text Only | Print | Product List | Glossary On
Versions: 1 2 3 4 5 6 7 8 9 10 11 12 13 14 15 16 17 18 19 20
000
FTUS46 KMFR 311700
TAFMFR
TAF
KMFR 311720Z 3118/0118 VRB03KT P6SM SCT040 OVC080
     FM312200 33008KT P6SM SCT040 BKN080
     FM010300 VRB03KT P6SM OVC040
     FM010800 00000KT P6SM OVC025=

USA.gov is the U.S. government's official web portal to all federal, state and local government web resources and services.